Milford, CT

10:44 AM EDT on September 01, 2014 (GMT -0400)
Westport Place | Change Station
CLOSE
Current Station
Personal Weather Station
Location: Milford, CT
Elevation: 167 ft
Nearby Weather Stations

Elev 167 ft 41.24 °N, 73.08 °W | Updated 3 minutes ago

Clear
Clear
81.0 °F
Feels Like 86 °F
N
4.0
Wind Variable Wind from WSW
Gusts 6.0 mph

Today
High -- | Low -- °F
--% Chance of Precip.
Yesterday
High -- | Low -- °F
Precip. -- in
6:18 AM 7:25 PM
Waxing Crescent, 41% visible
Pressure 30.00 in
Visibility 10.0 miles
Clouds Clear
Heat Index 86 °F
Dew Point 74 °F
Humidity 80%
Rainfall 0.00 in
Snow Depth Not available.
UV 5 out of 12
Pollen 5.10 out of 12
Ozone Good
Flu Activity Not available.
METAR KBDR 011352Z 20008KT 10SM CLR 26/23 A3000 RMK AO2 SLP157 T02560228

More Conditions Fewer Conditions

Pressure 30.00 in
Visibility 10.0 miles
Clouds Clear
Heat Index 86 °F
Dew Point 74 °F
Humidity 80%
Rainfall 0.00 in
Snow Depth Not available.
UV 5 out of 12
Pollen 5.10 out of 12
Ozone Good
Flu Activity Not available.
METAR KBDR 011352Z 20008KT 10SM CLR 26/23 A3000 RMK AO2 SLP157 T02560228

More Conditions Fewer Conditions

10-Day Weather Forecast

Almanac

Astronomy

Sep. 01, 2014 Rise Set
Actual Time 6:18 AM EDT 7:25 PM EDT
Civil Twilight 5:50 AM EDT 7:53 PM EDT
Nautical Twilight 5:16 AM EDT 8:27 PM EDT
Astronomical Twilight 4:40 AM EDT 9:02 PM EDT
Moon 1:05 PM EDT 11:19 PM EDT
Length of Visible Light 14h 03m
Length of Day
13h 06m
Tomorrow will be 2m 39s shorter.
Waxing Crescent, 41% of the Moon is Illuminated
Today
Waxing Crescent
Sep 2
First Quarter
Sep 8
Full
Sep 15
Last Quarter
Sep 24
New

Today's Extremes

State Highs State Lows

Community

WunderPhotos

Upload Photos

1,749,253 photos uploaded!

Nearby

Air Quality

  Air Quality AQ Index Pollutant
Yesterday Good
OZONE
Current Good
OZONE
Monday Moderate
PM2.5
Monday Good
OZONE
Tuesday Moderate
OZONE
Tuesday Moderate
PM2.5

Snow Depth

Station Depth Elevation
No new snow has been reported.

Earthquake Activity

City Distance Mag. Time & Date
No recent earthquake activity has been reported nearby.
Minimum magnitude displayed is 2.5.

Coastal Water Temperatures

Place Temperature
Kings Point, NY 75.0 °F
Bridgeport, CT 75.0 °F

Nearby Weather Stations